Time;durP1;ratioP1;P1;durP2;ratioP2;P2;SDS_P1;SDS_P2;PMS_P1;PMS_P2;Temp;Humidity;BMP_temperature;BMP_pressure;BME280_temperature;BME280_humidity;BME280_pressure;Samples;Min_cycle;Max_cycle;Signal;HPM_P1;HPM_P2
2021/10/01 00:00:47;;;;;;;5.80;2.65;;;;;;;;;;5019496;28;20063;-52
2021/10/01 00:03:14;;;;;;;5.97;2.30;;;;;;;;;;5031077;28;20038;-50
2021/10/01 00:05:42;;;;;;;4.20;2.45;;;;;;;;;;5026736;28;20112;-48
2021/10/01 00:08:10;;;;;;;4.15;2.05;;;;;;;;;;5029936;28;20075;-49
2021/10/01 00:10:36;;;;;;;7.38;2.63;;;;;;;;;;5032377;28;20530;-50
2021/10/01 00:13:03;;;;;;;6.00;2.85;;;;;;;;;;5033056;28;20542;-48
2021/10/01 00:15:31;;;;;;;9.15;2.97;;;;;;;;;;5031182;28;20045;-48
2021/10/01 00:18:01;;;;;;;3.83;2.42;;;;;;;;;;5024927;28;20115;-48
2021/10/01 00:20:27;;;;;;;3.85;2.33;;;;;;;;;;5029646;28;20033;-48
2021/10/01 00:22:54;;;;;;;3.47;2.38;;;;;;;;;;5032894;28;20037;-49
2021/10/01 00:25:21;;;;;;;4.93;2.70;;;;;;;;;;5032642;28;20065;-48
2021/10/01 00:27:48;;;;;;;4.90;2.80;;;;;;;;;;5030815;28;20081;-47
2021/10/01 00:30:15;;;;;;;4.35;2.70;;;;;;;;;;5028754;28;20119;-49
2021/10/01 00:32:42;;;;;;;5.20;2.50;;;;;;;;;;5033112;28;20064;-51
2021/10/01 00:35:09;;;;;;;5.30;2.35;;;;;;;;;;5034209;28;20045;-48
2021/10/01 00:37:35;;;;;;;4.88;2.92;;;;;;;;;;5031903;28;20521;-48
2021/10/01 00:40:03;;;;;;;3.97;2.70;;;;;;;;;;5048066;22;20447;-46
2021/10/01 00:42:30;;;;;;;5.05;2.65;;;;;;;;;;5050871;28;20160;-44
2021/10/01 00:44:57;;;;;;;7.93;3.13;;;;;;;;;;5046470;28;20104;-45
2021/10/01 00:47:24;;;;;;;5.82;2.50;;;;;;;;;;5037265;28;20478;-44
2021/10/01 00:49:51;;;;;;;3.90;2.63;;;;;;;;;;5049709;28;20175;-44
2021/10/01 00:52:19;;;;;;;8.23;2.90;;;;;;;;;;5031186;28;20053;-46
2021/10/01 00:54:47;;;;;;;7.65;3.00;;;;;;;;;;5030199;28;20442;-45
2021/10/01 00:57:13;;;;;;;5.00;2.80;;;;;;;;;;5031266;28;20037;-45
2021/10/01 00:59:40;;;;;;;4.57;2.67;;;;;;;;;;5029733;28;20049;-44
2021/10/01 01:02:07;;;;;;;7.20;2.83;;;;;;;;;;5032863;28;20064;-45
2021/10/01 01:04:36;;;;;;;5.93;2.67;;;;;;;;;;5012958;28;20410;-44
2021/10/01 01:07:22;;;;;;;5.55;3.00;;;;;;;;;;5028188;28;20077;-45
2021/10/01 01:10:10;;;;;;;5.82;2.80;;;;;;;;;;5025370;28;20041;-47
2021/10/01 01:12:47;;;;;;;5.38;2.45;;;;;;;;;;5047344;28;20049;-44
2021/10/01 01:15:20;;;;;;;5.73;2.47;;;;;;;;;;5028745;28;20044;-45
2021/10/01 01:18:01;;;;;;;4.03;3.00;;;;;;;;;;5028648;28;20313;-45
2021/10/01 01:20:59;;;;;;;7.03;3.28;;;;;;;;;;5017494;28;20487;-44
2021/10/01 01:24:01;;;;;;;6.45;3.10;;;;;;;;;;5025447;28;20092;-46
2021/10/01 01:26:58;;;;;;;4.07;2.78;;;;;;;;;;5006825;28;20074;-44
2021/10/01 01:29:34;;;;;;;6.43;2.45;;;;;;;;;;5036773;28;20096;-46
2021/10/01 01:32:07;;;;;;;5.65;3.30;;;;;;;;;;5033382;28;20176;-44
2021/10/01 01:34:34;;;;;;;5.25;2.88;;;;;;;;;;5029676;28;20516;-45
2021/10/01 01:37:14;;;;;;;4.95;3.33;;;;;;;;;;5025640;28;20038;-44
2021/10/01 01:39:41;;;;;;;5.13;3.13;;;;;;;;;;5018953;28;20091;-45
2021/10/01 01:42:08;;;;;;;5.63;3.22;;;;;;;;;;5031045;28;20132;-46
2021/10/01 01:44:35;;;;;;;6.45;3.33;;;;;;;;;;5031363;28;20065;-45
2021/10/01 01:47:02;;;;;;;5.15;2.80;;;;;;;;;;5031970;28;20065;-44
2021/10/01 01:49:30;;;;;;;4.93;3.03;;;;;;;;;;5046144;28;20464;-46
2021/10/01 01:51:58;;;;;;;4.30;3.00;;;;;;;;;;5030954;28;20048;-45
2021/10/01 01:54:25;;;;;;;5.85;3.38;;;;;;;;;;5029135;28;20131;-48
2021/10/01 01:56:53;;;;;;;3.95;3.00;;;;;;;;;;5031525;28;20045;-44
2021/10/01 01:59:20;;;;;;;5.85;3.00;;;;;;;;;;5029965;28;20084;-47
2021/10/01 02:01:48;;;;;;;5.40;3.05;;;;;;;;;;5029680;28;20045;-46
2021/10/01 02:04:19;;;;;;;6.32;3.17;;;;;;;;;;5027918;28;20091;-44
2021/10/01 02:06:47;;;;;;;4.88;2.97;;;;;;;;;;5029254;28;20419;-44
2021/10/01 02:09:14;;;;;;;7.13;3.20;;;;;;;;;;5034418;28;20045;-45
2021/10/01 02:11:42;;;;;;;5.25;3.10;;;;;;;;;;5034809;28;20065;-44
2021/10/01 02:14:12;;;;;;;4.70;2.80;;;;;;;;;;5045185;28;20112;-44
2021/10/01 02:16:40;;;;;;;5.78;3.00;;;;;;;;;;5032193;28;20103;-45
2021/10/01 02:19:09;;;;;;;5.15;2.78;;;;;;;;;;5040742;28;20483;-46
2021/10/01 02:21:36;;;;;;;5.97;2.90;;;;;;;;;;5042626;28;20061;-45
2021/10/01 02:24:04;;;;;;;7.45;3.08;;;;;;;;;;5012841;28;20091;-45
2021/10/01 02:26:38;;;;;;;6.10;2.90;;;;;;;;;;5047942;28;20383;-48
2021/10/01 02:29:14;;;;;;;5.03;3.15;;;;;;;;;;5030789;28;20099;-48
2021/10/01 02:31:53;;;;;;;5.25;2.75;;;;;;;;;;5045804;28;20457;-45
2021/10/01 02:34:25;;;;;;;6.05;2.63;;;;;;;;;;5029348;28;20077;-44
2021/10/01 02:36:52;;;;;;;5.68;3.15;;;;;;;;;;5025466;28;20038;-45
2021/10/01 02:39:19;;;;;;;7.18;3.88;;;;;;;;;;5018002;28;20038;-47
2021/10/01 02:41:45;;;;;;;5.50;2.67;;;;;;;;;;5025881;28;20558;-45
2021/10/01 02:44:12;;;;;;;6.55;2.70;;;;;;;;;;5027209;28;20049;-45
2021/10/01 02:46:39;;;;;;;4.93;3.05;;;;;;;;;;5029754;28;20033;-44
2021/10/01 02:49:06;;;;;;;4.45;2.50;;;;;;;;;;5029299;28;20046;-43
2021/10/01 02:51:34;;;;;;;4.65;3.00;;;;;;;;;;5027942;28;20046;-44
2021/10/01 02:54:04;;;;;;;6.03;2.90;;;;;;;;;;5028394;28;20506;-44
2021/10/01 02:56:37;;;;;;;5.68;2.55;;;;;;;;;;5025561;28;20562;-45
2021/10/01 02:59:05;;;;;;;6.53;3.10;;;;;;;;;;5027197;28;20407;-46
2021/10/01 03:01:32;;;;;;;7.13;3.15;;;;;;;;;;5029769;28;20041;-45
2021/10/01 03:04:08;;;;;;;4.80;2.47;;;;;;;;;;5028341;28;20061;-43
2021/10/01 03:06:38;;;;;;;4.55;2.70;;;;;;;;;;5046649;28;20037;-44
2021/10/01 03:09:05;;;;;;;4.57;2.60;;;;;;;;;;5028609;28;20042;-46
2021/10/01 03:11:38;;;;;;;4.20;2.90;;;;;;;;;;5032977;28;20491;-44
2021/10/01 03:14:07;;;;;;;4.80;2.70;;;;;;;;;;5030561;28;20083;-42
2021/10/01 03:16:35;;;;;;;4.88;3.00;;;;;;;;;;5035912;28;20045;-43
2021/10/01 03:19:04;;;;;;;5.95;2.95;;;;;;;;;;5023537;28;20038;-43
2021/10/01 03:21:31;;;;;;;5.32;2.60;;;;;;;;;;5027120;28;20068;-47
2021/10/01 03:23:58;;;;;;;3.92;2.40;;;;;;;;;;5030765;28;20419;-44
2021/10/01 03:26:27;;;;;;;5.43;2.47;;;;;;;;;;5027719;28;20044;-43
2021/10/01 03:28:55;;;;;;;5.75;2.95;;;;;;;;;;5029934;28;20487;-43
2021/10/01 03:31:25;;;;;;;5.28;2.72;;;;;;;;;;5043419;28;20111;-47
2021/10/01 03:33:54;;;;;;;5.32;2.70;;;;;;;;;;5022837;28;20056;-43
2021/10/01 03:36:23;;;;;;;4.55;2.50;;;;;;;;;;5019668;28;20056;-43
2021/10/01 03:38:56;;;;;;;5.80;2.72;;;;;;;;;;5010799;28;20049;-43
2021/10/01 03:41:23;;;;;;;5.30;2.65;;;;;;;;;;5029181;28;20038;-43
2021/10/01 03:43:53;;;;;;;7.68;2.63;;;;;;;;;;5047702;28;20052;-43
2021/10/01 03:46:21;;;;;;;5.80;2.60;;;;;;;;;;5033197;28;20148;-43
2021/10/01 03:48:48;;;;;;;6.47;2.55;;;;;;;;;;5033827;28;20080;-44
2021/10/01 03:51:16;;;;;;;5.40;2.40;;;;;;;;;;5033189;28;20124;-44
2021/10/01 03:53:44;;;;;;;3.83;2.65;;;;;;;;;;5023091;28;20038;-43
2021/10/01 03:56:17;;;;;;;4.55;2.60;;;;;;;;;;5042103;28;20046;-43
2021/10/01 03:58:45;;;;;;;;;;;;;;;;;;5047326;28;20049;-43
2021/10/01 04:01:12;;;;;;;5.15;2.53;;;;;;;;;;5033596;28;19933;-43
2021/10/01 04:03:40;;;;;;;4.53;2.65;;;;;;;;;;5035735;28;20485;-44
2021/10/01 04:06:09;;;;;;;5.05;2.40;;;;;;;;;;5032319;28;20049;-44
2021/10/01 04:08:36;;;;;;;4.10;2.60;;;;;;;;;;5040191;28;20056;-44
2021/10/01 04:11:03;;;;;;;6.53;2.60;;;;;;;;;;5032695;28;20041;-43
2021/10/01 04:13:30;;;;;;;4.53;2.75;;;;;;;;;;5032686;28;20041;-44
2021/10/01 04:15:57;;;;;;;5.38;2.80;;;;;;;;;;5015186;28;20215;-44
2021/10/01 04:18:24;;;;;;;5.07;2.80;;;;;;;;;;5051171;28;20410;-44
2021/10/01 04:20:51;;;;;;;4.82;2.60;;;;;;;;;;5031805;28;20045;-46
2021/10/01 04:23:18;;;;;;;8.55;3.00;;;;;;;;;;5032762;28;20041;-44
2021/10/01 04:25:45;;;;;;;4.85;2.50;;;;;;;;;;5032629;28;20633;-43
2021/10/01 04:28:12;;;;;;;5.15;2.45;;;;;;;;;;5033414;28;20132;-43
2021/10/01 04:30:44;;;;;;;3.92;2.45;;;;;;;;;;5031623;28;20072;-44
2021/10/01 04:33:23;;;;;;;4.20;2.33;;;;;;;;;;5033149;28;20049;-43
2021/10/01 04:35:52;;;;;;;6.75;2.70;;;;;;;;;;5032383;28;20045;-44
2021/10/01 04:38:20;;;;;;;5.47;2.50;;;;;;;;;;5029930;28;20391;-44
2021/10/01 04:40:48;;;;;;;4.35;2.40;;;;;;;;;;5019891;28;20096;-43
2021/10/01 04:43:15;;;;;;;4.95;3.03;;;;;;;;;;5032403;28;20049;-43
2021/10/01 04:46:00;;;;;;;5.20;2.58;;;;;;;;;;5021982;28;20415;-44
2021/10/01 04:48:28;;;;;;;8.48;3.42;;;;;;;;;;5017007;28;20038;-47
2021/10/01 04:50:55;;;;;;;7.85;3.30;;;;;;;;;;5030288;28;20042;-43
2021/10/01 04:53:22;;;;;;;5.32;3.15;;;;;;;;;;5031834;28;20056;-46
2021/10/01 04:55:49;;;;;;;6.03;2.95;;;;;;;;;;5030456;28;20120;-45
2021/10/01 04:58:16;;;;;;;6.80;3.10;;;;;;;;;;5033582;28;20044;-44
2021/10/01 05:01:02;;;;;;;6.60;3.72;;;;;;;;;;5032674;28;20045;-45
2021/10/01 05:03:52;;;;;;;5.72;2.90;;;;;;;;;;5006147;28;20057;-44
2021/10/01 05:06:45;;;;;;;7.38;3.20;;;;;;;;;;5031721;28;20570;-44
2021/10/01 05:09:41;;;;;;;6.30;3.00;;;;;;;;;;5020235;28;20071;-44
2021/10/01 05:12:26;;;;;;;5.53;2.97;;;;;;;;;;5034265;28;20054;-44
2021/10/01 05:15:12;;;;;;;4.85;2.45;;;;;;;;;;5033537;28;20099;-44
2021/10/01 05:17:58;;;;;;;4.97;2.60;;;;;;;;;;5024570;28;20137;-44
2021/10/01 05:20:43;;;;;;;6.07;2.97;;;;;;;;;;5033342;28;20437;-47
2021/10/01 05:23:31;;;;;;;6.38;3.05;;;;;;;;;;5025851;28;20045;-44
2021/10/01 05:25:58;;;;;;;4.70;2.90;;;;;;;;;;5021668;28;20038;-43
2021/10/01 05:28:25;;;;;;;5.93;2.60;;;;;;;;;;5032996;28;20061;-44
2021/10/01 05:30:52;;;;;;;8.05;2.67;;;;;;;;;;5021335;28;20148;-46
2021/10/01 05:33:19;;;;;;;4.93;2.58;;;;;;;;;;5033484;28;20121;-44
2021/10/01 05:35:47;;;;;;;7.07;2.90;;;;;;;;;;5032579;28;20049;-44
2021/10/01 05:38:14;;;;;;;4.78;2.80;;;;;;;;;;5032728;28;20103;-47
2021/10/01 05:40:41;;;;;;;10.55;2.83;;;;;;;;;;5033161;28;20050;-45
2021/10/01 05:43:09;;;;;;;5.72;3.40;;;;;;;;;;5031663;28;20049;-44
2021/10/01 05:45:39;;;;;;;5.45;3.20;;;;;;;;;;5012602;28;20038;-45
2021/10/01 05:48:27;;;;;;;6.35;3.33;;;;;;;;;;5035643;28;20065;-45
2021/10/01 05:51:23;;;;;;;6.95;3.30;;;;;;;;;;5026527;28;20754;-45
2021/10/01 05:54:23;;;;;;;7.60;3.17;;;;;;;;;;5011407;28;20545;-48
2021/10/01 05:57:07;;;;;;;17.88;3.40;;;;;;;;;;5013617;28;20512;-47
2021/10/01 05:59:41;;;;;;;5.65;2.92;;;;;;;;;;5022323;28;20038;-48
2021/10/01 06:02:12;;;;;;;6.88;3.58;;;;;;;;;;5030426;28;20037;-45
2021/10/01 06:04:40;;;;;;;5.72;3.03;;;;;;;;;;5045641;28;20095;-45
2021/10/01 06:07:07;;;;;;;9.55;3.35;;;;;;;;;;5032348;28;20113;-44
2021/10/01 06:09:34;;;;;;;4.88;2.60;;;;;;;;;;5030109;28;20165;-45
2021/10/01 06:12:01;;;;;;;7.85;2.70;;;;;;;;;;5019322;28;20128;-45
2021/10/01 06:14:29;;;;;;;6.68;2.30;;;;;;;;;;5029803;28;20414;-45
2021/10/01 06:16:56;;;;;;;8.15;2.92;;;;;;;;;;5028236;28;20048;-44
2021/10/01 06:19:23;;;;;;;7.03;2.75;;;;;;;;;;5029346;28;20049;-43
2021/10/01 06:21:52;;;;;;;6.70;2.20;;;;;;;;;;5031697;28;20037;-43
2021/10/01 06:24:19;;;;;;;5.97;2.67;;;;;;;;;;5029953;28;20044;-46
2021/10/01 06:26:47;;;;;;;6.85;2.80;;;;;;;;;;5031199;28;20041;-46
2021/10/01 06:29:15;;;;;;;4.90;2.70;;;;;;;;;;5028991;28;20034;-44
2021/10/01 06:31:42;;;;;;;4.45;2.45;;;;;;;;;;5029339;28;20447;-45
2021/10/01 06:34:10;;;;;;;3.33;2.33;;;;;;;;;;5030565;28;20509;-46
2021/10/01 06:36:37;;;;;;;7.30;2.80;;;;;;;;;;5031135;28;20083;-43
2021/10/01 06:39:05;;;;;;;4.45;2.33;;;;;;;;;;5030988;28;20128;-44
2021/10/01 06:41:33;;;;;;;6.57;2.60;;;;;;;;;;5050444;22;20084;-48
2021/10/01 06:44:03;;;;;;;6.05;2.63;;;;;;;;;;5048883;28;20056;-46
2021/10/01 06:46:49;;;;;;;7.32;2.60;;;;;;;;;;5050206;28;20037;-45
2021/10/01 07:23:02;;;;;;;4.30;2.17;;;;;;;;;;5022085;28;21825;-44
2021/10/01 07:36:58;;;;;;;4.53;2.00;;;;;;;;;;5024475;28;20053;-46
2021/10/01 08:20:15;;;;;;;5.55;2.33;;;;;;;;;;5028924;28;20046;-47
2021/10/01 08:22:42;;;;;;;6.43;2.30;;;;;;;;;;5026389;28;20144;-46
2021/10/01 08:25:09;;;;;;;5.80;2.30;;;;;;;;;;5025118;28;20038;-47
2021/10/01 08:27:36;;;;;;;7.85;2.45;;;;;;;;;;5026487;28;20463;-47
2021/10/01 08:30:08;;;;;;;4.35;2.00;;;;;;;;;;5021593;28;20038;-47
2021/10/01 08:32:35;;;;;;;3.50;2.22;;;;;;;;;;5033399;28;20129;-49
2021/10/01 08:35:03;;;;;;;8.02;2.20;;;;;;;;;;5029717;28;20478;-48
2021/10/01 08:37:30;;;;;;;3.80;2.13;;;;;;;;;;5024364;28;20052;-48
2021/10/01 08:39:57;;;;;;;5.35;2.03;;;;;;;;;;5026246;28;20072;-46
2021/10/01 08:42:39;;;;;;;7.22;2.40;;;;;;;;;;5027918;28;20391;-49
2021/10/01 08:45:08;;;;;;;3.80;2.33;;;;;;;;;;5031340;28;20451;-46
2021/10/01 08:47:35;;;;;;;3.58;2.00;;;;;;;;;;5023386;28;20042;-46
2021/10/01 08:50:03;;;;;;;3.97;2.30;;;;;;;;;;5041065;28;20041;-50
2021/10/01 08:52:30;;;;;;;6.20;2.30;;;;;;;;;;5028319;28;20410;-47
2021/10/01 08:54:59;;;;;;;4.22;2.00;;;;;;;;;;5033879;28;20061;-46
2021/10/01 08:57:26;;;;;;;3.08;2.20;;;;;;;;;;5030856;28;20041;-46
2021/10/01 08:59:53;;;;;;;6.45;2.50;;;;;;;;;;5031094;28;20080;-48
2021/10/01 09:02:20;;;;;;;5.78;2.50;;;;;;;;;;5033180;28;20064;-53
2021/10/01 09:04:47;;;;;;;3.03;2.38;;;;;;;;;;5032572;28;20046;-47
2021/10/01 09:07:14;;;;;;;5.05;2.17;;;;;;;;;;5030305;28;20037;-45
2021/10/01 09:09:43;;;;;;;8.77;2.50;;;;;;;;;;5029644;28;20043;-48
2021/10/01 09:12:13;;;;;;;4.45;2.35;;;;;;;;;;5032291;28;20041;-48
2021/10/01 09:14:42;;;;;;;2.95;1.90;;;;;;;;;;5031935;28;20076;-48
2021/10/01 09:17:12;;;;;;;3.03;2.15;;;;;;;;;;5033269;28;20049;-49
2021/10/01 09:19:40;;;;;;;3.67;2.00;;;;;;;;;;5029707;28;20060;-48
2021/10/01 09:22:07;;;;;;;4.47;2.40;;;;;;;;;;5030267;28;20044;-46
2021/10/01 09:24:35;;;;;;;7.05;2.40;;;;;;;;;;5031240;28;20049;-50
2021/10/01 09:27:02;;;;;;;3.90;2.13;;;;;;;;;;5025214;28;20808;-48
2021/10/01 09:29:34;;;;;;;6.18;1.90;;;;;;;;;;5028049;28;20034;-47
2021/10/01 09:32:11;;;;;;;7.13;2.50;;;;;;;;;;5027821;28;20518;-44
2021/10/01 09:34:42;;;;;;;5.38;2.08;;;;;;;;;;5019919;28;20140;-47
2021/10/01 09:37:10;;;;;;;3.10;1.60;;;;;;;;;;5026167;28;20671;-44
2021/10/01 09:39:46;;;;;;;3.15;1.70;;;;;;;;;;5030871;28;20049;-44
2021/10/01 09:42:16;;;;;;;3.20;1.60;;;;;;;;;;5026129;28;20621;-43
2021/10/01 09:44:45;;;;;;;4.25;1.73;;;;;;;;;;5026847;28;20120;-43
2021/10/01 09:47:12;;;;;;;4.43;1.40;;;;;;;;;;5030718;28;20038;-44
2021/10/01 09:49:39;;;;;;;4.55;1.65;;;;;;;;;;5042538;28;20099;-45
2021/10/01 09:52:06;;;;;;;3.92;1.40;;;;;;;;;;5029931;28;20208;-44
2021/10/01 09:54:34;;;;;;;3.30;1.40;;;;;;;;;;5033130;28;20076;-47
2021/10/01 09:57:02;;;;;;;2.53;1.52;;;;;;;;;;5025716;28;20042;-44
2021/10/01 09:59:30;;;;;;;5.15;1.63;;;;;;;;;;5028337;28;20073;-46
2021/10/01 10:01:59;;;;;;;2.22;1.45;;;;;;;;;;5029979;28;20044;-43
2021/10/01 10:04:27;;;;;;;5.80;1.48;;;;;;;;;;5028373;28;20095;-43
2021/10/01 10:06:55;;;;;;;2.22;1.45;;;;;;;;;;5031033;28;20514;-43
2021/10/01 10:09:29;;;;;;;2.38;1.38;;;;;;;;;;5021468;28;20100;-45
2021/10/01 10:11:56;;;;;;;3.08;1.10;;;;;;;;;;5035100;28;20087;-49
2021/10/01 10:14:23;;;;;;;4.70;1.20;;;;;;;;;;5031423;28;20499;-46
2021/10/01 10:16:50;;;;;;;4.97;1.10;;;;;;;;;;5031668;28;20120;-44
2021/10/01 10:19:20;;;;;;;2.22;1.10;;;;;;;;;;5028540;28;20049;-44
2021/10/01 10:21:48;;;;;;;2.92;1.25;;;;;;;;;;5027186;28;20049;-44
2021/10/01 10:24:15;;;;;;;2.47;1.38;;;;;;;;;;5030640;28;20033;-44
2021/10/01 10:26:42;;;;;;;2.88;1.23;;;;;;;;;;5027211;28;20081;-44
2021/10/01 10:29:10;;;;;;;2.95;1.17;;;;;;;;;;5029063;28;20037;-47
2021/10/01 10:31:38;;;;;;;2.63;1.10;;;;;;;;;;5010922;28;20148;-44
2021/10/01 10:34:21;;;;;;;3.88;1.27;;;;;;;;;;5014364;28;20153;-44
2021/10/01 10:36:48;;;;;;;3.33;1.25;;;;;;;;;;5030363;28;20045;-44
2021/10/01 10:39:19;;;;;;;1.83;1.10;;;;;;;;;;5029813;28;20041;-44
2021/10/01 10:42:05;;;;;;;2.60;1.20;;;;;;;;;;5035658;28;20048;-43
2021/10/01 10:44:52;;;;;;;6.65;1.40;;;;;;;;;;5022737;28;20415;-46
2021/10/01 10:47:54;;;;;;;3.05;1.40;;;;;;;;;;5025889;28;20042;-45
2021/10/01 10:50:21;;;;;;;2.85;1.30;;;;;;;;;;4992446;28;20054;-42
2021/10/01 10:55:34;;;;;;;2.47;1.27;;;;;;;;;;5028782;28;20164;-43
2021/10/01 10:58:27;;;;;;;4.88;1.13;;;;;;;;;;5025038;28;20084;-44
2021/10/01 11:01:01;;;;;;;3.58;1.38;;;;;;;;;;5024531;28;20041;-45
2021/10/01 11:03:29;;;;;;;2.33;1.15;;;;;;;;;;5028865;28;20490;-44
2021/10/01 11:06:08;;;;;;;1.92;1.00;;;;;;;;;;5030056;28;20052;-46
2021/10/01 11:08:46;;;;;;;3.33;1.02;;;;;;;;;;5018496;28;20064;-45
2021/10/01 11:11:28;;;;;;;4.40;1.40;;;;;;;;;;5021737;28;20044;-45
2021/10/01 11:14:17;;;;;;;2.95;1.17;;;;;;;;;;5027111;28;20443;-46
2021/10/01 11:16:45;;;;;;;2.72;1.30;;;;;;;;;;5027173;28;20128;-44
2021/10/01 11:19:12;;;;;;;5.68;1.50;;;;;;;;;;5024507;28;20177;-43
2021/10/01 11:21:42;;;;;;;3.63;1.40;;;;;;;;;;5027861;28;20042;-46
2021/10/01 11:24:19;;;;;;;3.13;0.93;;;;;;;;;;5029210;28;20037;-46
2021/10/01 11:26:54;;;;;;;3.55;1.33;;;;;;;;;;5011214;28;20038;-45
2021/10/01 11:29:31;;;;;;;2.85;1.20;;;;;;;;;;5010566;28;20121;-48
2021/10/01 11:32:08;;;;;;;4.82;1.20;;;;;;;;;;5025932;28;20073;-43
2021/10/01 11:34:45;;;;;;;5.82;1.30;;;;;;;;;;5030395;28;20050;-45
2021/10/01 11:37:27;;;;;;;3.97;1.00;;;;;;;;;;5030920;28;20044;-44
2021/10/01 11:39:56;;;;;;;1.63;1.07;;;;;;;;;;5011539;28;20064;-45
2021/10/01 11:42:25;;;;;;;3.67;1.05;;;;;;;;;;5030649;28;20300;-45
2021/10/01 11:44:52;;;;;;;2.78;1.10;;;;;;;;;;5029004;28;20467;-45
2021/10/01 11:47:19;;;;;;;2.40;1.00;;;;;;;;;;5028177;28;20037;-47
2021/10/01 11:49:56;;;;;;;7.95;1.70;;;;;;;;;;5011247;28;20048;-45
2021/10/01 11:52:24;;;;;;;2.60;1.45;;;;;;;;;;5011164;28;20049;-44
2021/10/01 11:54:59;;;;;;;4.25;1.17;;;;;;;;;;5015102;28;20566;-45
2021/10/01 11:57:36;;;;;;;3.33;1.10;;;;;;;;;;5021366;28;20125;-47
2021/10/01 12:00:04;;;;;;;1.45;0.95;;;;;;;;;;5011022;28;20126;-44
2021/10/01 12:02:40;;;;;;;4.43;1.20;;;;;;;;;;5022289;28;20057;-46
2021/10/01 12:05:18;;;;;;;3.85;1.23;;;;;;;;;;5024326;28;20187;-45
2021/10/01 12:07:49;;;;;;;2.70;1.38;;;;;;;;;;5028300;28;20038;-45
2021/10/01 12:10:17;;;;;;;4.20;1.43;;;;;;;;;;5032737;28;20037;-43
2021/10/01 12:13:13;;;;;;;5.15;1.42;;;;;;;;;;5033279;28;20049;-44
2021/10/01 12:15:53;;;;;;;5.40;1.30;;;;;;;;;;5009156;28;20574;-43
2021/10/01 12:18:44;;;;;;;4.65;1.27;;;;;;;;;;5028020;28;20037;-44
2021/10/01 12:21:12;;;;;;;3.25;1.30;;;;;;;;;;5054223;28;20047;-45
2021/10/01 12:23:42;;;;;;;1.20;1.10;;;;;;;;;;5038240;28;20175;-46
2021/10/01 12:26:18;;;;;;;2.90;1.20;;;;;;;;;;5034110;28;20068;-45
2021/10/01 12:29:03;;;;;;;3.35;1.10;;;;;;;;;;5014145;28;20561;-46
2021/10/01 12:31:34;;;;;;;2.75;1.20;;;;;;;;;;5014015;28;20062;-46
2021/10/01 12:34:02;;;;;;;3.65;1.10;;;;;;;;;;5013688;28;20133;-47
2021/10/01 12:36:29;;;;;;;1.77;1.35;;;;;;;;;;5017561;28;20067;-44
2021/10/01 12:38:57;;;;;;;2.47;1.25;;;;;;;;;;5029992;28;20050;-44
2021/10/01 12:41:24;;;;;;;4.20;1.38;;;;;;;;;;5032472;28;20068;-46
2021/10/01 12:43:52;;;;;;;12.05;2.45;;;;;;;;;;5033621;28;20048;-44
2021/10/01 12:46:51;;;;;;;2.55;1.25;;;;;;;;;;5022755;28;20128;-44
2021/10/01 12:49:29;;;;;;;2.60;1.20;;;;;;;;;;5005809;28;20124;-43
2021/10/01 12:52:10;;;;;;;1.70;1.27;;;;;;;;;;5031165;28;20140;-43
2021/10/01 12:54:37;;;;;;;3.35;1.30;;;;;;;;;;5026654;28;20048;-45
2021/10/01 12:57:11;;;;;;;3.75;1.15;;;;;;;;;;5032708;28;20387;-43
2021/10/01 12:59:40;;;;;;;1.90;0.95;;;;;;;;;;5031360;28;20081;-43
2021/10/01 13:02:12;;;;;;;3.95;1.23;;;;;;;;;;5033234;28;20073;-44
2021/10/01 13:04:44;;;;;;;1.90;1.00;;;;;;;;;;5023399;28;20452;-45
2021/10/01 13:07:29;;;;;;;2.42;1.23;;;;;;;;;;5029249;28;20121;-46
2021/10/01 13:09:58;;;;;;;21.67;1.60;;;;;;;;;;5032148;28;20132;-43
2021/10/01 13:12:26;;;;;;;2.08;1.30;;;;;;;;;;5032570;28;20514;-44
2021/10/01 13:15:11;;;;;;;1.83;0.90;;;;;;;;;;5033350;28;20049;-44
2021/10/01 13:17:38;;;;;;;3.28;1.10;;;;;;;;;;5025089;28;20152;-43
2021/10/01 13:20:05;;;;;;;3.22;1.40;;;;;;;;;;5028352;28;20052;-47
2021/10/01 13:22:52;;;;;;;2.03;1.08;;;;;;;;;;5039441;22;20152;-51
2021/10/01 13:25:25;;;;;;;3.75;1.25;;;;;;;;;;5044277;28;20091;-49
2021/10/01 13:27:53;;;;;;;2.15;1.10;;;;;;;;;;5051572;28;20051;-51
2021/10/01 13:30:20;;;;;;;2.90;1.00;;;;;;;;;;5040646;28;20108;-48
2021/10/01 13:32:47;;;;;;;3.80;1.30;;;;;;;;;;5043945;28;20060;-50
2021/10/01 13:35:15;;;;;;;2.83;1.10;;;;;;;;;;5031999;28;20124;-49
2021/10/01 13:37:43;;;;;;;3.05;1.13;;;;;;;;;;5032337;28;20051;-47
2021/10/01 13:40:10;;;;;;;2.28;1.20;;;;;;;;;;5021301;28;20054;-47
2021/10/01 13:42:37;;;;;;;3.38;1.15;;;;;;;;;;5025023;28;20125;-46
2021/10/01 13:45:05;;;;;;;1.27;1.00;;;;;;;;;;5031268;28;20045;-49
2021/10/01 13:47:32;;;;;;;1.90;1.20;;;;;;;;;;5032289;28;20488;-49
2021/10/01 13:49:59;;;;;;;5.18;1.23;;;;;;;;;;5032006;28;20498;-46
2021/10/01 13:52:26;;;;;;;3.40;1.00;;;;;;;;;;5030701;28;20060;-50
2021/10/01 13:54:53;;;;;;;1.52;1.02;;;;;;;;;;5029939;28;20137;-47
2021/10/01 13:57:20;;;;;;;3.15;1.02;;;;;;;;;;5032256;28;20041;-50
2021/10/01 13:59:49;;;;;;;2.30;1.00;;;;;;;;;;5021286;28;20045;-47
2021/10/01 14:02:16;;;;;;;3.95;1.13;;;;;;;;;;5020234;28;20120;-49
2021/10/01 14:04:43;;;;;;;3.00;1.27;;;;;;;;;;5034846;28;20116;-49
2021/10/01 14:07:09;;;;;;;2.58;1.10;;;;;;;;;;5031519;28;20120;-48
2021/10/01 14:09:36;;;;;;;3.17;1.42;;;;;;;;;;5032415;28;20042;-47
2021/10/01 14:12:23;;;;;;;2.13;1.10;;;;;;;;;;5027933;28;20038;-49
2021/10/01 14:14:50;;;;;;;1.50;1.00;;;;;;;;;;5030725;28;20065;-49
2021/10/01 14:17:17;;;;;;;2.00;1.10;;;;;;;;;;5028517;28;20068;-48
2021/10/01 14:19:44;;;;;;;3.75;1.35;;;;;;;;;;5030185;28;20411;-49
2021/10/01 14:22:11;;;;;;;4.70;2.35;;;;;;;;;;5032961;28;20044;-50
2021/10/01 14:24:43;;;;;;;;;;;;;;;;;;5027376;28;20073;-44
2021/10/01 14:27:23;;;;;;;1.77;1.00;;;;;;;;;;5024392;28;19943;-44
2021/10/01 14:29:51;;;;;;;6.53;1.50;;;;;;;;;;5018156;28;20069;-45
2021/10/01 14:32:19;;;;;;;3.28;1.20;;;;;;;;;;5026442;28;20069;-46
2021/10/01 14:34:46;;;;;;;2.22;1.60;;;;;;;;;;5029865;28;20120;-45
2021/10/01 14:37:13;;;;;;;3.67;1.50;;;;;;;;;;5032118;28;20041;-44
2021/10/01 14:39:40;;;;;;;4.65;1.70;;;;;;;;;;5013172;28;20061;-44
2021/10/01 14:42:06;;;;;;;1.50;1.05;;;;;;;;;;5012102;28;20034;-44
2021/10/01 14:44:33;;;;;;;2.38;0.93;;;;;;;;;;5021764;28;20529;-44
2021/10/01 14:47:00;;;;;;;4.22;1.33;;;;;;;;;;5012096;28;20129;-46
2021/10/01 14:49:27;;;;;;;3.03;1.10;;;;;;;;;;5011321;28;20558;-44
2021/10/01 14:51:54;;;;;;;5.25;1.35;;;;;;;;;;5010616;28;20046;-43
2021/10/01 14:54:21;;;;;;;1.65;1.10;;;;;;;;;;5012276;28;20052;-47
2021/10/01 14:56:48;;;;;;;2.30;1.42;;;;;;;;;;5011939;28;20066;-43
2021/10/01 14:59:14;;;;;;;3.20;1.23;;;;;;;;;;5012154;28;20042;-46
2021/10/01 15:01:41;;;;;;;1.85;1.08;;;;;;;;;;5012001;28;20526;-44
2021/10/01 15:04:08;;;;;;;3.42;1.23;;;;;;;;;;5013516;28;20483;-44
2021/10/01 15:06:35;;;;;;;2.15;1.13;;;;;;;;;;5012017;28;20054;-46
2021/10/01 15:09:02;;;;;;;1.67;1.15;;;;;;;;;;5020958;28;20384;-44
2021/10/01 15:11:29;;;;;;;3.90;1.30;;;;;;;;;;5020375;28;20098;-44
2021/10/01 15:13:56;;;;;;;3.50;1.77;;;;;;;;;;5027969;28;20046;-44
2021/10/01 15:16:22;;;;;;;2.67;1.20;;;;;;;;;;5011699;28;20070;-44
2021/10/01 15:18:49;;;;;;;4.68;1.45;;;;;;;;;;5011623;28;20050;-44
2021/10/01 15:21:16;;;;;;;17.23;2.40;;;;;;;;;;5031242;28;20033;-47
2021/10/01 15:23:44;;;;;;;8.60;1.60;;;;;;;;;;5024441;28;20041;-45
2021/10/01 15:26:11;;;;;;;4.05;1.25;;;;;;;;;;5011365;28;20036;-44
2021/10/01 15:28:38;;;;;;;4.07;1.40;;;;;;;;;;5015269;28;20040;-44
2021/10/01 15:31:06;;;;;;;1.70;1.17;;;;;;;;;;5012009;28;20100;-43
2021/10/01 15:33:33;;;;;;;2.10;1.20;;;;;;;;;;5020146;28;20057;-45
2021/10/01 15:36:00;;;;;;;3.60;1.90;;;;;;;;;;5029980;28;20462;-46
2021/10/01 15:38:27;;;;;;;3.40;1.45;;;;;;;;;;5020043;28;20074;-45
2021/10/01 15:40:54;;;;;;;1.70;1.20;;;;;;;;;;5010733;28;20495;-45
2021/10/01 15:43:21;;;;;;;1.88;1.05;;;;;;;;;;5014620;28;20037;-45
2021/10/01 15:45:49;;;;;;;3.10;1.20;;;;;;;;;;5031043;28;20064;-43
2021/10/01 15:48:21;;;;;;;2.47;1.38;;;;;;;;;;5014405;28;20038;-44
2021/10/01 15:50:48;;;;;;;2.95;1.20;;;;;;;;;;5011580;28;20072;-44
2021/10/01 15:53:15;;;;;;;4.15;1.25;;;;;;;;;;5017996;28;20049;-46
2021/10/01 15:55:42;;;;;;;3.47;1.20;;;;;;;;;;5029907;28;20049;-46
2021/10/01 15:58:10;;;;;;;2.03;1.25;;;;;;;;;;5011770;28;20129;-43
2021/10/01 16:00:42;;;;;;;2.28;1.40;;;;;;;;;;5010904;28;20503;-44
2021/10/01 16:03:09;;;;;;;2.67;1.60;;;;;;;;;;5010901;28;20062;-45
2021/10/01 16:05:37;;;;;;;2.75;1.55;;;;;;;;;;5020998;28;20410;-45
2021/10/01 16:08:05;;;;;;;2.47;1.60;;;;;;;;;;5013613;28;20057;-44
2021/10/01 16:10:34;;;;;;;2.47;1.50;;;;;;;;;;5011607;28;20042;-44
2021/10/01 16:13:01;;;;;;;4.60;1.40;;;;;;;;;;5011327;28;20042;-45
2021/10/01 16:15:28;;;;;;;2.65;1.50;;;;;;;;;;5010983;28;20069;-46
2021/10/01 16:17:55;;;;;;;2.13;1.58;;;;;;;;;;5015007;28;20052;-46
2021/10/01 16:20:26;;;;;;;2.28;1.30;;;;;;;;;;5030927;28;20045;-49
2021/10/01 16:22:53;;;;;;;5.28;2.65;;;;;;;;;;5026909;28;20037;-48
2021/10/01 16:25:22;;;;;;;4.20;1.58;;;;;;;;;;5010284;28;20079;-46
2021/10/01 16:27:49;;;;;;;3.20;1.20;;;;;;;;;;5013508;28;20049;-46
2021/10/01 16:30:17;;;;;;;3.05;1.40;;;;;;;;;;5016310;28;20072;-44
2021/10/01 16:32:43;;;;;;;2.22;1.30;;;;;;;;;;5010501;28;20084;-44